sensor_id;sensor_type;location;lat;lon;timestamp;temperature;humidity
54540;SHT30;40438;52.992;18.604;2023-09-12T00:01:04;18.53;74.27
54540;SHT30;40438;52.992;18.604;2023-09-12T00:03:30;18.50;74.50
54540;SHT30;40438;52.992;18.604;2023-09-12T00:05:56;18.49;74.81
54540;SHT30;40438;52.992;18.604;2023-09-12T00:08:23;18.43;75.03
54540;SHT30;40438;52.992;18.604;2023-09-12T00:10:59;18.40;75.10
54540;SHT30;40438;52.992;18.604;2023-09-12T00:13:25;18.40;74.96
54540;SHT30;40438;52.992;18.604;2023-09-12T00:15:52;18.39;74.71
54540;SHT30;40438;52.992;18.604;2023-09-12T00:18:18;18.42;74.42
54540;SHT30;40438;52.992;18.604;2023-09-12T00:20:44;18.39;74.24
54540;SHT30;40438;52.992;18.604;2023-09-12T00:23:09;18.39;73.97
54540;SHT30;40438;52.992;18.604;2023-09-12T00:25:35;18.32;74.10
54540;SHT30;40438;52.992;18.604;2023-09-12T00:28:01;18.23;74.27
54540;SHT30;40438;52.992;18.604;2023-09-12T00:30:27;18.20;74.30
54540;SHT30;40438;52.992;18.604;2023-09-12T00:32:54;18.23;74.09
54540;SHT30;40438;52.992;18.604;2023-09-12T00:35:20;18.22;73.94
54540;SHT30;40438;52.992;18.604;2023-09-12T00:37:45;18.19;73.88
54540;SHT30;40438;52.992;18.604;2023-09-12T00:40:11;18.09;73.99
54540;SHT30;40438;52.992;18.604;2023-09-12T00:42:37;18.08;74.10
54540;SHT30;40438;52.992;18.604;2023-09-12T00:45:03;18.02;74.42
54540;SHT30;40438;52.992;18.604;2023-09-12T00:47:30;17.96;74.56
54540;SHT30;40438;52.992;18.604;2023-09-12T00:49:58;17.88;75.72
54540;SHT30;40438;52.992;18.604;2023-09-12T00:52:25;17.77;76.67
54540;SHT30;40438;52.992;18.604;2023-09-12T00:54:52;17.65;76.61
54540;SHT30;40438;52.992;18.604;2023-09-12T00:57:18;17.58;76.55
54540;SHT30;40438;52.992;18.604;2023-09-12T00:59:44;17.58;76.48
54540;SHT30;40438;52.992;18.604;2023-09-12T01:02:10;17.55;76.74
54540;SHT30;40438;52.992;18.604;2023-09-12T01:04:36;17.54;76.80
54540;SHT30;40438;52.992;18.604;2023-09-12T01:07:04;17.51;76.98
54540;SHT30;40438;52.992;18.604;2023-09-12T01:09:30;17.50;76.98
54540;SHT30;40438;52.992;18.604;2023-09-12T01:11:56;17.43;77.20
54540;SHT30;40438;52.992;18.604;2023-09-12T01:14:22;17.41;77.04
54540;SHT30;40438;52.992;18.604;2023-09-12T01:16:48;17.43;76.82
54540;SHT30;40438;52.992;18.604;2023-09-12T01:19:14;17.40;76.46
54540;SHT30;40438;52.992;18.604;2023-09-12T01:25:07;17.31;75.97
54540;SHT30;40438;52.992;18.604;2023-09-12T01:27:37;17.30;75.82
54540;SHT30;40438;52.992;18.604;2023-09-12T01:30:05;17.24;76.09
54540;SHT30;40438;52.992;18.604;2023-09-12T01:32:33;17.22;76.44
54540;SHT30;40438;52.992;18.604;2023-09-12T01:35:01;17.20;76.60
54540;SHT30;40438;52.992;18.604;2023-09-12T01:37:27;17.15;77.05
54540;SHT30;40438;52.992;18.604;2023-09-12T01:39:52;17.13;77.05
54540;SHT30;40438;52.992;18.604;2023-09-12T01:42:20;17.10;77.43
54540;SHT30;40438;52.992;18.604;2023-09-12T01:44:50;17.05;77.42
54540;SHT30;40438;52.992;18.604;2023-09-12T01:47:21;17.05;77.75
54540;SHT30;40438;52.992;18.604;2023-09-12T01:49:49;17.00;77.87
54540;SHT30;40438;52.992;18.604;2023-09-12T01:52:15;16.92;77.87
54540;SHT30;40438;52.992;18.604;2023-09-12T01:54:41;16.92;77.65
54540;SHT30;40438;52.992;18.604;2023-09-12T01:57:08;16.91;77.16
54540;SHT30;40438;52.992;18.604;2023-09-12T01:59:34;16.86;77.11
54540;SHT30;40438;52.992;18.604;2023-09-12T02:02:01;16.91;77.10
54540;SHT30;40438;52.992;18.604;2023-09-12T02:04:27;16.92;76.78
54540;SHT30;40438;52.992;18.604;2023-09-12T02:06:54;16.85;76.45
54540;SHT30;40438;52.992;18.604;2023-09-12T02:09:19;16.91;76.13
54540;SHT30;40438;52.992;18.604;2023-09-12T02:11:48;16.89;75.96
54540;SHT30;40438;52.992;18.604;2023-09-12T02:14:14;16.86;75.98
54540;SHT30;40438;52.992;18.604;2023-09-12T02:16:40;16.84;76.07
54540;SHT30;40438;52.992;18.604;2023-09-12T02:19:07;16.82;75.92
54540;SHT30;40438;52.992;18.604;2023-09-12T02:21:33;16.85;75.73
54540;SHT30;40438;52.992;18.604;2023-09-12T02:23:58;16.82;75.64
54540;SHT30;40438;52.992;18.604;2023-09-12T02:26:24;16.80;75.70
54540;SHT30;40438;52.992;18.604;2023-09-12T02:28:50;16.79;75.69
54540;SHT30;40438;52.992;18.604;2023-09-12T02:31:16;16.72;75.81
54540;SHT30;40438;52.992;18.604;2023-09-12T02:33:42;16.72;75.74
54540;SHT30;40438;52.992;18.604;2023-09-12T02:36:09;16.68;75.84
54540;SHT30;40438;52.992;18.604;2023-09-12T02:38:35;16.68;75.83
54540;SHT30;40438;52.992;18.604;2023-09-12T02:41:01;16.64;75.90
54540;SHT30;40438;52.992;18.604;2023-09-12T02:43:26;16.64;75.89
54540;SHT30;40438;52.992;18.604;2023-09-12T02:45:52;16.57;76.18
54540;SHT30;40438;52.992;18.604;2023-09-12T02:48:18;16.49;76.45
54540;SHT30;40438;52.992;18.604;2023-09-12T02:50:45;16.48;77.05
54540;SHT30;40438;52.992;18.604;2023-09-12T02:53:12;16.40;77.27
54540;SHT30;40438;52.992;18.604;2023-09-12T02:55:39;16.36;77.49
54540;SHT30;40438;52.992;18.604;2023-09-12T02:58:05;16.30;78.03
54540;SHT30;40438;52.992;18.604;2023-09-12T03:00:31;16.31;77.85
54540;SHT30;40438;52.992;18.604;2023-09-12T03:02:57;16.30;77.78
54540;SHT30;40438;52.992;18.604;2023-09-12T03:05:23;16.27;77.71
54540;SHT30;40438;52.992;18.604;2023-09-12T03:07:48;16.27;77.61
54540;SHT30;40438;52.992;18.604;2023-09-12T03:10:16;16.23;77.59
54540;SHT30;40438;52.992;18.604;2023-09-12T03:12:42;16.18;77.77
54540;SHT30;40438;52.992;18.604;2023-09-12T03:15:09;16.17;77.98
54540;SHT30;40438;52.992;18.604;2023-09-12T03:17:35;16.14;78.66
54540;SHT30;40438;52.992;18.604;2023-09-12T03:20:01;16.14;78.51
54540;SHT30;40438;52.992;18.604;2023-09-12T03:22:27;16.14;78.04
54540;SHT30;40438;52.992;18.604;2023-09-12T03:24:53;16.13;78.06
54540;SHT30;40438;52.992;18.604;2023-09-12T03:27:20;16.09;78.64
54540;SHT30;40438;52.992;18.604;2023-09-12T03:29:46;16.09;78.45
54540;SHT30;40438;52.992;18.604;2023-09-12T03:32:12;16.07;78.31
54540;SHT30;40438;52.992;18.604;2023-09-12T03:34:38;16.05;78.22
54540;SHT30;40438;52.992;18.604;2023-09-12T03:37:04;16.01;77.76
54540;SHT30;40438;52.992;18.604;2023-09-12T03:39:30;16.00;77.94
54540;SHT30;40438;52.992;18.604;2023-09-12T03:41:56;16.00;78.03
54540;SHT30;40438;52.992;18.604;2023-09-12T03:44:23;15.96;78.05
54540;SHT30;40438;52.992;18.604;2023-09-12T03:46:49;15.97;77.89
54540;SHT30;40438;52.992;18.604;2023-09-12T03:49:14;15.93;78.09
54540;SHT30;40438;52.992;18.604;2023-09-12T03:51:40;15.87;78.17
54540;SHT30;40438;52.992;18.604;2023-09-12T03:54:06;15.80;77.97
54540;SHT30;40438;52.992;18.604;2023-09-12T03:56:32;15.78;77.76
54540;SHT30;40438;52.992;18.604;2023-09-12T03:58:58;15.76;77.60
54540;SHT30;40438;52.992;18.604;2023-09-12T04:01:25;15.72;77.65
54540;SHT30;40438;52.992;18.604;2023-09-12T04:03:51;15.72;77.59
54540;SHT30;40438;52.992;18.604;2023-09-12T04:06:17;15.73;77.77
54540;SHT30;40438;52.992;18.604;2023-09-12T04:08:43;15.72;77.55
54540;SHT30;40438;52.992;18.604;2023-09-12T04:11:09;15.72;77.58
54540;SHT30;40438;52.992;18.604;2023-09-12T04:13:34;15.73;77.56
54540;SHT30;40438;52.992;18.604;2023-09-12T04:16:00;15.73;77.46
54540;SHT30;40438;52.992;18.604;2023-09-12T04:18:27;15.69;77.34
54540;SHT30;40438;52.992;18.604;2023-09-12T04:20:53;15.69;77.16
54540;SHT30;40438;52.992;18.604;2023-09-12T04:23:19;15.68;77.17
54540;SHT30;40438;52.992;18.604;2023-09-12T04:25:45;15.66;77.53
54540;SHT30;40438;52.992;18.604;2023-09-12T04:28:11;15.65;77.43
54540;SHT30;40438;52.992;18.604;2023-09-12T04:30:37;15.62;77.54
54540;SHT30;40438;52.992;18.604;2023-09-12T04:33:04;15.65;77.57
54540;SHT30;40438;52.992;18.604;2023-09-12T04:35:32;15.63;77.35
54540;SHT30;40438;52.992;18.604;2023-09-12T04:37:58;15.69;77.04
54540;SHT30;40438;52.992;18.604;2023-09-12T04:40:24;15.69;76.75
54540;SHT30;40438;52.992;18.604;2023-09-12T04:42:50;15.70;76.44
54540;SHT30;40438;52.992;18.604;2023-09-12T04:45:16;15.73;76.40
54540;SHT30;40438;52.992;18.604;2023-09-12T04:47:42;15.76;76.51
54540;SHT30;40438;52.992;18.604;2023-09-12T04:50:08;15.69;76.72
54540;SHT30;40438;52.992;18.604;2023-09-12T04:52:35;15.70;77.27
54540;SHT30;40438;52.992;18.604;2023-09-12T04:55:01;15.75;77.46
54540;SHT30;40438;52.992;18.604;2023-09-12T04:57:27;15.70;78.57
54540;SHT30;40438;52.992;18.604;2023-09-12T04:59:53;15.70;78.65
54540;SHT30;40438;52.992;18.604;2023-09-12T05:02:19;15.69;78.46
54540;SHT30;40438;52.992;18.604;2023-09-12T05:04:44;15.63;78.30
54540;SHT30;40438;52.992;18.604;2023-09-12T05:07:10;15.65;77.89
54540;SHT30;40438;52.992;18.604;2023-09-12T05:09:37;15.65;77.90
54540;SHT30;40438;52.992;18.604;2023-09-12T05:12:04;15.69;77.99
54540;SHT30;40438;52.992;18.604;2023-09-12T05:14:30;15.73;77.94
54540;SHT30;40438;52.992;18.604;2023-09-12T05:16:55;15.78;77.76
54540;SHT30;40438;52.992;18.604;2023-09-12T05:19:21;15.80;78.01
54540;SHT30;40438;52.992;18.604;2023-09-12T05:21:47;15.86;77.94
54540;SHT30;40438;52.992;18.604;2023-09-12T05:24:13;15.93;77.94
54540;SHT30;40438;52.992;18.604;2023-09-12T05:26:40;16.00;77.97
54540;SHT30;40438;52.992;18.604;2023-09-12T05:29:06;16.07;77.83
54540;SHT30;40438;52.992;18.604;2023-09-12T05:31:32;16.16;77.69
54540;SHT30;40438;52.992;18.604;2023-09-12T05:33:57;16.23;77.61
54540;SHT30;40438;52.992;18.604;2023-09-12T05:36:23;16.31;77.50
54540;SHT30;40438;52.992;18.604;2023-09-12T05:38:49;16.40;77.39
54540;SHT30;40438;52.992;18.604;2023-09-12T05:41:15;16.49;77.38
54540;SHT30;40438;52.992;18.604;2023-09-12T05:43:42;16.58;77.53
54540;SHT30;40438;52.992;18.604;2023-09-12T05:46:08;16.67;77.70
54540;SHT30;40438;52.992;18.604;2023-09-12T05:48:34;16.71;77.97
54540;SHT30;40438;52.992;18.604;2023-09-12T05:51:00;16.82;78.20
54540;SHT30;40438;52.992;18.604;2023-09-12T05:53:26;16.92;78.39
54540;SHT30;40438;52.992;18.604;2023-09-12T05:55:51;17.06;78.79
54540;SHT30;40438;52.992;18.604;2023-09-12T05:58:18;17.19;79.31
54540;SHT30;40438;52.992;18.604;2023-09-12T06:00:45;17.27;79.22
54540;SHT30;40438;52.992;18.604;2023-09-12T06:03:14;17.36;79.18
54540;SHT30;40438;52.992;18.604;2023-09-12T06:05:40;17.48;79.25
54540;SHT30;40438;52.992;18.604;2023-09-12T06:08:05;17.61;79.38
54540;SHT30;40438;52.992;18.604;2023-09-12T06:10:31;17.75;79.40
54540;SHT30;40438;52.992;18.604;2023-09-12T06:12:57;17.91;79.25
54540;SHT30;40438;52.992;18.604;2023-09-12T06:15:23;17.96;79.12
54540;SHT30;40438;52.992;18.604;2023-09-12T06:17:50;18.06;79.20
54540;SHT30;40438;52.992;18.604;2023-09-12T06:20:16;18.15;79.13
54540;SHT30;40438;52.992;18.604;2023-09-12T06:22:41;18.25;78.89
54540;SHT30;40438;52.992;18.604;2023-09-12T06:25:07;18.32;78.84
54540;SHT30;40438;52.992;18.604;2023-09-12T06:27:33;18.43;78.65
54540;SHT30;40438;52.992;18.604;2023-09-12T06:29:59;18.50;78.45
54540;SHT30;40438;52.992;18.604;2023-09-12T06:32:25;18.59;78.50
54540;SHT30;40438;52.992;18.604;2023-09-12T06:34:52;18.68;78.27
54540;SHT30;40438;52.992;18.604;2023-09-12T06:37:18;18.80;77.97
54540;SHT30;40438;52.992;18.604;2023-09-12T06:39:44;18.88;77.88
54540;SHT30;40438;52.992;18.604;2023-09-12T06:42:09;18.98;77.72
54540;SHT30;40438;52.992;18.604;2023-09-12T06:44:35;19.11;77.38
54540;SHT30;40438;52.992;18.604;2023-09-12T06:47:03;19.22;77.15
54540;SHT30;40438;52.992;18.604;2023-09-12T06:49:29;19.31;76.99
54540;SHT30;40438;52.992;18.604;2023-09-12T06:51:57;19.43;77.00
54540;SHT30;40438;52.992;18.604;2023-09-12T06:54:22;19.57;76.66
54540;SHT30;40438;52.992;18.604;2023-09-12T06:56:48;19.69;76.36
54540;SHT30;40438;52.992;18.604;2023-09-12T06:59:14;19.78;76.06
54540;SHT30;40438;52.992;18.604;2023-09-12T07:01:40;19.93;75.80
54540;SHT30;40438;52.992;18.604;2023-09-12T07:04:06;20.05;75.38
54540;SHT30;40438;52.992;18.604;2023-09-12T07:06:31;20.14;74.87
54540;SHT30;40438;52.992;18.604;2023-09-12T07:08:59;20.31;74.58
54540;SHT30;40438;52.992;18.604;2023-09-12T07:11:24;20.48;74.23
54540;SHT30;40438;52.992;18.604;2023-09-12T07:13:50;20.57;72.96
54540;SHT30;40438;52.992;18.604;2023-09-12T07:16:16;20.75;71.97
54540;SHT30;40438;52.992;18.604;2023-09-12T07:18:42;20.89;71.88
54540;SHT30;40438;52.992;18.604;2023-09-12T07:21:07;21.06;72.06
54540;SHT30;40438;52.992;18.604;2023-09-12T07:23:33;21.26;71.81
54540;SHT30;40438;52.992;18.604;2023-09-12T07:26:00;21.48;70.41
54540;SHT30;40438;52.992;18.604;2023-09-12T07:28:27;21.65;70.03
54540;SHT30;40438;52.992;18.604;2023-09-12T07:30:53;21.85;69.69
54540;SHT30;40438;52.992;18.604;2023-09-12T07:33:19;22.12;68.78
54540;SHT30;40438;52.992;18.604;2023-09-12T07:35:45;22.21;69.11
54540;SHT30;40438;52.992;18.604;2023-09-12T07:38:11;22.37;68.73
54540;SHT30;40438;52.992;18.604;2023-09-12T07:40:37;22.47;68.35
54540;SHT30;40438;52.992;18.604;2023-09-12T07:43:04;22.60;68.31
54540;SHT30;40438;52.992;18.604;2023-09-12T07:45:30;22.72;67.64
54540;SHT30;40438;52.992;18.604;2023-09-12T07:47:55;22.78;67.10
54540;SHT30;40438;52.992;18.604;2023-09-12T07:50:21;22.82;66.64
54540;SHT30;40438;52.992;18.604;2023-09-12T07:52:47;22.91;66.89
54540;SHT30;40438;52.992;18.604;2023-09-12T07:55:13;22.99;67.31
54540;SHT30;40438;52.992;18.604;2023-09-12T07:57:38;23.08;67.25
54540;SHT30;40438;52.992;18.604;2023-09-12T08:00:07;23.19;65.11
54540;SHT30;40438;52.992;18.604;2023-09-12T08:02:37;23.33;65.39
54540;SHT30;40438;52.992;18.604;2023-09-12T08:05:03;23.47;65.67
54540;SHT30;40438;52.992;18.604;2023-09-12T08:07:29;23.60;65.74
54540;SHT30;40438;52.992;18.604;2023-09-12T08:09:56;23.80;63.37
54540;SHT30;40438;52.992;18.604;2023-09-12T08:12:23;23.93;63.10
54540;SHT30;40438;52.992;18.604;2023-09-12T08:14:49;24.15;62.89
54540;SHT30;40438;52.992;18.604;2023-09-12T08:17:16;24.43;62.77
54540;SHT30;40438;52.992;18.604;2023-09-12T08:19:42;24.66;62.02
54540;SHT30;40438;52.992;18.604;2023-09-12T08:22:09;24.94;60.37
54540;SHT30;40438;52.992;18.604;2023-09-12T08:24:35;25.18;59.81
54540;SHT30;40438;52.992;18.604;2023-09-12T08:27:01;25.45;59.47
54540;SHT30;40438;52.992;18.604;2023-09-12T08:29:28;25.75;58.32
54540;SHT30;40438;52.992;18.604;2023-09-12T08:31:54;26.07;57.85
54540;SHT30;40438;52.992;18.604;2023-09-12T08:34:21;26.45;57.58
54540;SHT30;40438;52.992;18.604;2023-09-12T08:36:47;26.89;56.90
54540;SHT30;40438;52.992;18.604;2023-09-12T08:39:14;27.42;55.83
54540;SHT30;40438;52.992;18.604;2023-09-12T08:41:40;27.56;54.60
54540;SHT30;40438;52.992;18.604;2023-09-12T08:44:07;27.89;53.63
54540;SHT30;40438;52.992;18.604;2023-09-12T08:46:33;28.07;52.94
54540;SHT30;40438;52.992;18.604;2023-09-12T08:48:59;28.32;53.09
54540;SHT30;40438;52.992;18.604;2023-09-12T08:51:26;28.53;52.40
54540;SHT30;40438;52.992;18.604;2023-09-12T08:53:52;28.62;51.85
54540;SHT30;40438;52.992;18.604;2023-09-12T08:56:19;28.80;50.65
54540;SHT30;40438;52.992;18.604;2023-09-12T08:58:45;29.00;49.80
54540;SHT30;40438;52.992;18.604;2023-09-12T09:01:13;29.12;49.53
54540;SHT30;40438;52.992;18.604;2023-09-12T09:03:41;29.35;48.35
54540;SHT30;40438;52.992;18.604;2023-09-12T09:06:08;29.46;47.95
54540;SHT30;40438;52.992;18.604;2023-09-12T09:08:36;29.66;47.32
54540;SHT30;40438;52.992;18.604;2023-09-12T09:11:02;29.70;47.68
54540;SHT30;40438;52.992;18.604;2023-09-12T09:13:28;29.76;46.62
54540;SHT30;40438;52.992;18.604;2023-09-12T09:16:09;29.77;46.29
54540;SHT30;40438;52.992;18.604;2023-09-12T09:18:49;29.83;46.33
54540;SHT30;40438;52.992;18.604;2023-09-12T09:21:17;29.92;46.08
54540;SHT30;40438;52.992;18.604;2023-09-12T09:23:46;29.85;44.98
54540;SHT30;40438;52.992;18.604;2023-09-12T09:26:12;29.81;45.54
54540;SHT30;40438;52.992;18.604;2023-09-12T09:28:38;30.04;46.39
54540;SHT30;40438;52.992;18.604;2023-09-12T09:31:04;30.18;45.04
54540;SHT30;40438;52.992;18.604;2023-09-12T09:33:34;30.33;44.75
54540;SHT30;40438;52.992;18.604;2023-09-12T09:36:02;30.45;44.02
54540;SHT30;40438;52.992;18.604;2023-09-12T09:38:28;30.57;43.78
54540;SHT30;40438;52.992;18.604;2023-09-12T09:40:56;30.61;43.95
54540;SHT30;40438;52.992;18.604;2023-09-12T09:43:22;30.68;44.18
54540;SHT30;40438;52.992;18.604;2023-09-12T09:45:48;30.83;43.96
54540;SHT30;40438;52.992;18.604;2023-09-12T09:48:18;31.05;43.09
54540;SHT30;40438;52.992;18.604;2023-09-12T09:50:44;31.22;43.20
54540;SHT30;40438;52.992;18.604;2023-09-12T09:53:10;31.43;43.18
54540;SHT30;40438;52.992;18.604;2023-09-12T09:55:36;31.66;42.36
54540;SHT30;40438;52.992;18.604;2023-09-12T09:58:05;31.88;41.91
54540;SHT30;40438;52.992;18.604;2023-09-12T10:00:33;32.04;40.78
54540;SHT30;40438;52.992;18.604;2023-09-12T10:02:59;32.14;41.14
54540;SHT30;40438;52.992;18.604;2023-09-12T10:05:30;32.38;41.60
54540;SHT30;40438;52.992;18.604;2023-09-12T10:07:57;32.53;40.53
54540;SHT30;40438;52.992;18.604;2023-09-12T10:10:25;32.67;40.68
54540;SHT30;40438;52.992;18.604;2023-09-12T10:12:56;32.88;39.71
54540;SHT30;40438;52.992;18.604;2023-09-12T10:15:29;32.76;39.30
54540;SHT30;40438;52.992;18.604;2023-09-12T10:17:56;32.76;39.20
54540;SHT30;40438;52.992;18.604;2023-09-12T10:20:26;32.86;38.63
54540;SHT30;40438;52.992;18.604;2023-09-12T10:23:01;33.02;38.55
54540;SHT30;40438;52.992;18.604;2023-09-12T10:25:28;32.91;38.17
54540;SHT30;40438;52.992;18.604;2023-09-12T10:27:54;33.06;38.81
54540;SHT30;40438;52.992;18.604;2023-09-12T10:30:21;33.28;37.71
54540;SHT30;40438;52.992;18.604;2023-09-12T10:32:48;33.42;38.03
54540;SHT30;40438;52.992;18.604;2023-09-12T10:35:15;33.55;37.62
54540;SHT30;40438;52.992;18.604;2023-09-12T10:37:43;33.58;37.36
54540;SHT30;40438;52.992;18.604;2023-09-12T10:40:11;33.68;38.00
54540;SHT30;40438;52.992;18.604;2023-09-12T10:42:39;33.75;37.57
54540;SHT30;40438;52.992;18.604;2023-09-12T10:45:06;33.91;36.75
54540;SHT30;40438;52.992;18.604;2023-09-12T10:47:32;33.99;36.81
54540;SHT30;40438;52.992;18.604;2023-09-12T10:49:59;34.27;36.98
54540;SHT30;40438;52.992;18.604;2023-09-12T10:52:25;34.43;36.29
54540;SHT30;40438;52.992;18.604;2023-09-12T10:54:51;34.50;36.00
54540;SHT30;40438;52.992;18.604;2023-09-12T10:57:17;34.49;36.42
54540;SHT30;40438;52.992;18.604;2023-09-12T11:00:11;34.09;39.12
54540;SHT30;40438;52.992;18.604;2023-09-12T11:02:38;33.66;39.68
54540;SHT30;40438;52.992;18.604;2023-09-12T11:05:06;33.23;40.11
54540;SHT30;40438;52.992;18.604;2023-09-12T11:07:34;32.87;40.20
54540;SHT30;40438;52.992;18.604;2023-09-12T11:10:21;32.60;38.13
54540;SHT30;40438;52.992;18.604;2023-09-12T11:12:48;32.60;39.43
54540;SHT30;40438;52.992;18.604;2023-09-12T11:15:15;32.45;39.41
54540;SHT30;40438;52.992;18.604;2023-09-12T11:17:41;32.25;39.60
54540;SHT30;40438;52.992;18.604;2023-09-12T11:20:09;32.14;39.60
54540;SHT30;40438;52.992;18.604;2023-09-12T11:22:36;32.14;39.51
54540;SHT30;40438;52.992;18.604;2023-09-12T11:25:02;32.42;38.00
54540;SHT30;40438;52.992;18.604;2023-09-12T11:27:31;33.03;37.40
54540;SHT30;40438;52.992;18.604;2023-09-12T11:30:03;33.21;37.12
54540;SHT30;40438;52.992;18.604;2023-09-12T11:32:32;33.51;36.47
54540;SHT30;40438;52.992;18.604;2023-09-12T11:34:59;33.75;36.22
54540;SHT30;40438;52.992;18.604;2023-09-12T11:37:27;33.99;35.37
54540;SHT30;40438;52.992;18.604;2023-09-12T11:39:53;34.39;35.08
54540;SHT30;40438;52.992;18.604;2023-09-12T11:42:19;34.68;33.87
54540;SHT30;40438;52.992;18.604;2023-09-12T11:44:45;34.80;34.37
54540;SHT30;40438;52.992;18.604;2023-09-12T11:47:12;34.99;34.50
54540;SHT30;40438;52.992;18.604;2023-09-12T11:49:39;35.19;34.30
54540;SHT30;40438;52.992;18.604;2023-09-12T11:52:08;35.55;34.12
54540;SHT30;40438;52.992;18.604;2023-09-12T11:54:35;35.83;32.80
54540;SHT30;40438;52.992;18.604;2023-09-12T11:57:02;36.00;31.99
54540;SHT30;40438;52.992;18.604;2023-09-12T11:59:28;36.07;32.10
54540;SHT30;40438;52.992;18.604;2023-09-12T12:01:55;36.20;32.34
54540;SHT30;40438;52.992;18.604;2023-09-12T12:04:22;36.41;32.62
54540;SHT30;40438;52.992;18.604;2023-09-12T12:06:48;36.58;32.36
54540;SHT30;40438;52.992;18.604;2023-09-12T12:09:14;36.81;31.91
54540;SHT30;40438;52.992;18.604;2023-09-12T12:11:41;36.82;31.42
54540;SHT30;40438;52.992;18.604;2023-09-12T12:14:11;36.79;30.46
54540;SHT30;40438;52.992;18.604;2023-09-12T12:16:37;36.16;29.16
54540;SHT30;40438;52.992;18.604;2023-09-12T12:19:03;35.82;28.93
54540;SHT30;40438;52.992;18.604;2023-09-12T12:21:29;35.65;29.50
54540;SHT30;40438;52.992;18.604;2023-09-12T12:23:58;35.41;30.21
54540;SHT30;40438;52.992;18.604;2023-09-12T12:26:24;35.04;29.69
54540;SHT30;40438;52.992;18.604;2023-09-12T12:28:51;34.80;29.98
54540;SHT30;40438;52.992;18.604;2023-09-12T12:31:17;34.81;30.38
54540;SHT30;40438;52.992;18.604;2023-09-12T12:33:47;34.47;30.17
54540;SHT30;40438;52.992;18.604;2023-09-12T12:36:13;34.67;30.54
54540;SHT30;40438;52.992;18.604;2023-09-12T12:38:39;34.74;31.08
54540;SHT30;40438;52.992;18.604;2023-09-12T12:41:05;34.54;30.81
54540;SHT30;40438;52.992;18.604;2023-09-12T12:43:31;34.60;30.63
54540;SHT30;40438;52.992;18.604;2023-09-12T12:45:58;34.27;31.42
54540;SHT30;40438;52.992;18.604;2023-09-12T12:48:31;34.44;30.99
54540;SHT30;40438;52.992;18.604;2023-09-12T12:50:57;34.30;30.59
54540;SHT30;40438;52.992;18.604;2023-09-12T12:53:37;34.20;30.82
54540;SHT30;40438;52.992;18.604;2023-09-12T12:56:03;34.17;31.30
54540;SHT30;40438;52.992;18.604;2023-09-12T12:58:29;34.35;30.07
54540;SHT30;40438;52.992;18.604;2023-09-12T13:00:54;34.50;30.39
54540;SHT30;40438;52.992;18.604;2023-09-12T13:03:22;34.88;30.41
54540;SHT30;40438;52.992;18.604;2023-09-12T13:05:47;34.83;30.02
54540;SHT30;40438;52.992;18.604;2023-09-12T13:08:13;34.81;29.98
54540;SHT30;40438;52.992;18.604;2023-09-12T13:10:39;34.88;28.99
54540;SHT30;40438;52.992;18.604;2023-09-12T13:13:05;34.47;29.32
54540;SHT30;40438;52.992;18.604;2023-09-12T13:15:30;34.49;29.35
54540;SHT30;40438;52.992;18.604;2023-09-12T13:17:56;34.41;30.03
54540;SHT30;40438;52.992;18.604;2023-09-12T13:20:23;34.37;30.04
54540;SHT30;40438;52.992;18.604;2023-09-12T13:22:49;34.41;29.64
54540;SHT30;40438;52.992;18.604;2023-09-12T13:25:15;34.30;29.78
54540;SHT30;40438;52.992;18.604;2023-09-12T13:27:41;34.41;29.56
54540;SHT30;40438;52.992;18.604;2023-09-12T13:30:07;34.49;29.91
54540;SHT30;40438;52.992;18.604;2023-09-12T13:32:33;34.61;30.32
54540;SHT30;40438;52.992;18.604;2023-09-12T13:34:59;34.78;29.43
54540;SHT30;40438;52.992;18.604;2023-09-12T13:37:26;34.58;29.20
54540;SHT30;40438;52.992;18.604;2023-09-12T13:39:52;34.35;29.57
54540;SHT30;40438;52.992;18.604;2023-09-12T13:42:18;34.29;29.90
54540;SHT30;40438;52.992;18.604;2023-09-12T13:44:44;34.24;30.77
54540;SHT30;40438;52.992;18.604;2023-09-12T13:47:10;34.43;30.57
54540;SHT30;40438;52.992;18.604;2023-09-12T13:49:36;34.53;30.00
54540;SHT30;40438;52.992;18.604;2023-09-12T13:52:02;34.39;29.73
54540;SHT30;40438;52.992;18.604;2023-09-12T13:54:29;34.46;30.14
54540;SHT30;40438;52.992;18.604;2023-09-12T13:56:56;34.81;30.01
54540;SHT30;40438;52.992;18.604;2023-09-12T13:59:22;34.74;30.06
54540;SHT30;40438;52.992;18.604;2023-09-12T14:01:47;34.70;30.29
54540;SHT30;40438;52.992;18.604;2023-09-12T14:04:13;34.70;30.36
54540;SHT30;40438;52.992;18.604;2023-09-12T14:06:39;34.87;29.87
54540;SHT30;40438;52.992;18.604;2023-09-12T14:09:05;34.83;29.77
54540;SHT30;40438;52.992;18.604;2023-09-12T14:11:32;34.61;30.40
54540;SHT30;40438;52.992;18.604;2023-09-12T14:13:58;34.61;30.39
54540;SHT30;40438;52.992;18.604;2023-09-12T14:16:23;34.60;30.36
54540;SHT30;40438;52.992;18.604;2023-09-12T14:18:49;34.66;31.21
54540;SHT30;40438;52.992;18.604;2023-09-12T14:21:15;34.70;30.94
54540;SHT30;40438;52.992;18.604;2023-09-12T14:23:41;34.71;31.01
54540;SHT30;40438;52.992;18.604;2023-09-12T14:26:06;34.74;30.99
54540;SHT30;40438;52.992;18.604;2023-09-12T14:28:34;34.74;30.89
54540;SHT30;40438;52.992;18.604;2023-09-12T14:30:59;34.68;30.57
54540;SHT30;40438;52.992;18.604;2023-09-12T14:33:25;34.70;30.72
54540;SHT30;40438;52.992;18.604;2023-09-12T14:35:51;34.53;30.78
54540;SHT30;40438;52.992;18.604;2023-09-12T14:38:17;34.47;30.53
54540;SHT30;40438;52.992;18.604;2023-09-12T14:40:42;34.49;30.52
54540;SHT30;40438;52.992;18.604;2023-09-12T14:43:08;34.27;30.58
54540;SHT30;40438;52.992;18.604;2023-09-12T14:45:35;34.26;30.95
54540;SHT30;40438;52.992;18.604;2023-09-12T14:48:01;34.06;30.72
54540;SHT30;40438;52.992;18.604;2023-09-12T14:50:27;33.93;31.07
54540;SHT30;40438;52.992;18.604;2023-09-12T14:52:53;33.88;31.05
54540;SHT30;40438;52.992;18.604;2023-09-12T14:55:18;33.82;31.17
54540;SHT30;40438;52.992;18.604;2023-09-12T14:57:44;33.85;31.63
54540;SHT30;40438;52.992;18.604;2023-09-12T15:00:10;33.89;31.90
54540;SHT30;40438;52.992;18.604;2023-09-12T15:02:37;33.95;31.98
54540;SHT30;40438;52.992;18.604;2023-09-12T15:05:04;33.95;31.88
54540;SHT30;40438;52.992;18.604;2023-09-12T15:07:30;33.81;31.85
54540;SHT30;40438;52.992;18.604;2023-09-12T15:09:56;33.73;32.68
54540;SHT30;40438;52.992;18.604;2023-09-12T15:12:22;33.58;32.60
54540;SHT30;40438;52.992;18.604;2023-09-12T15:14:48;33.57;32.47